sensor_id;sensor_type;location;lat;lon;timestamp;temperature;humidity
75262;DHT22;63859;51.064;4.580;2022-10-16T00:01:18;13.50;98.40
75262;DHT22;63859;51.064;4.580;2022-10-16T00:03:45;13.50;98.50
75262;DHT22;63859;51.064;4.580;2022-10-16T00:06:12;13.50;98.60
75262;DHT22;63859;51.064;4.580;2022-10-16T00:08:38;13.40;98.60
75262;DHT22;63859;51.064;4.580;2022-10-16T00:11:11;13.40;98.60
75262;DHT22;63859;51.064;4.580;2022-10-16T00:13:38;13.40;98.60
75262;DHT22;63859;51.064;4.580;2022-10-16T00:16:04;13.40;98.70
75262;DHT22;63859;51.064;4.580;2022-10-16T00:18:30;13.40;98.60
75262;DHT22;63859;51.064;4.580;2022-10-16T00:21:03;13.40;98.70
75262;DHT22;63859;51.064;4.580;2022-10-16T00:23:29;13.40;98.70
75262;DHT22;63859;51.064;4.580;2022-10-16T00:26:04;13.40;98.70
75262;DHT22;63859;51.064;4.580;2022-10-16T00:28:30;13.30;98.60
75262;DHT22;63859;51.064;4.580;2022-10-16T00:30:56;13.30;98.60
75262;DHT22;63859;51.064;4.580;2022-10-16T00:33:22;13.30;98.70
75262;DHT22;63859;51.064;4.580;2022-10-16T00:35:48;13.30;98.70
75262;DHT22;63859;51.064;4.580;2022-10-16T00:38:14;13.30;98.70
75262;DHT22;63859;51.064;4.580;2022-10-16T00:40:40;13.30;98.70
75262;DHT22;63859;51.064;4.580;2022-10-16T00:43:59;13.30;98.70
75262;DHT22;63859;51.064;4.580;2022-10-16T00:46:00;13.30;98.70
75262;DHT22;63859;51.064;4.580;2022-10-16T00:48:25;13.30;98.70
75262;DHT22;63859;51.064;4.580;2022-10-16T00:50:52;13.30;98.70
75262;DHT22;63859;51.064;4.580;2022-10-16T00:53:18;13.30;98.70
75262;DHT22;63859;51.064;4.580;2022-10-16T00:55:44;13.30;98.70
75262;DHT22;63859;51.064;4.580;2022-10-16T00:58:11;13.30;98.70
75262;DHT22;63859;51.064;4.580;2022-10-16T01:00:37;13.20;98.70
75262;DHT22;63859;51.064;4.580;2022-10-16T01:03:28;13.30;98.70
75262;DHT22;63859;51.064;4.580;2022-10-16T01:06:21;13.20;98.70
75262;DHT22;63859;51.064;4.580;2022-10-16T01:08:57;13.20;98.70
75262;DHT22;63859;51.064;4.580;2022-10-16T01:14:09;13.30;98.70
75262;DHT22;63859;51.064;4.580;2022-10-16T01:17:04;13.30;98.70
75262;DHT22;63859;51.064;4.580;2022-10-16T01:19:48;13.30;98.60
75262;DHT22;63859;51.064;4.580;2022-10-16T01:22:16;13.30;98.60
75262;DHT22;63859;51.064;4.580;2022-10-16T01:24:48;13.40;98.60
75262;DHT22;63859;51.064;4.580;2022-10-16T01:27:25;13.40;98.60
75262;DHT22;63859;51.064;4.580;2022-10-16T01:30:11;13.40;98.60
75262;DHT22;63859;51.064;4.580;2022-10-16T01:33:06;13.50;98.60
75262;DHT22;63859;51.064;4.580;2022-10-16T01:35:40;13.50;98.50
75262;DHT22;63859;51.064;4.580;2022-10-16T01:40:46;13.60;98.50
75262;DHT22;63859;51.064;4.580;2022-10-16T01:43:16;13.50;98.50
75262;DHT22;63859;51.064;4.580;2022-10-16T01:45:44;13.50;98.50
75262;DHT22;63859;51.064;4.580;2022-10-16T01:48:12;13.50;98.50
75262;DHT22;63859;51.064;4.580;2022-10-16T01:50:41;13.60;98.50
75262;DHT22;63859;51.064;4.580;2022-10-16T01:53:11;13.50;98.50
75262;DHT22;63859;51.064;4.580;2022-10-16T01:55:40;13.50;98.50
75262;DHT22;63859;51.064;4.580;2022-10-16T01:58:10;13.50;98.80
75262;DHT22;63859;51.064;4.580;2022-10-16T02:00:38;13.50;98.50
75262;DHT22;63859;51.064;4.580;2022-10-16T02:03:05;13.50;98.60
75262;DHT22;63859;51.064;4.580;2022-10-16T02:05:39;13.50;98.60
75262;DHT22;63859;51.064;4.580;2022-10-16T02:08:05;13.50;98.70
75262;DHT22;63859;51.064;4.580;2022-10-16T02:10:31;13.50;98.70
75262;DHT22;63859;51.064;4.580;2022-10-16T02:13:04;13.50;98.70
75262;DHT22;63859;51.064;4.580;2022-10-16T02:15:30;13.50;98.80
75262;DHT22;63859;51.064;4.580;2022-10-16T02:17:56;13.50;98.80
75262;DHT22;63859;51.064;4.580;2022-10-16T02:20:25;13.50;98.80
75262;DHT22;63859;51.064;4.580;2022-10-16T02:22:52;13.50;98.80
75262;DHT22;63859;51.064;4.580;2022-10-16T02:25:24;13.50;98.80
75262;DHT22;63859;51.064;4.580;2022-10-16T02:27:56;13.50;98.80
75262;DHT22;63859;51.064;4.580;2022-10-16T02:30:50;13.50;98.80
75262;DHT22;63859;51.064;4.580;2022-10-16T02:33:19;13.50;98.90
75262;DHT22;63859;51.064;4.580;2022-10-16T02:35:48;13.50;98.90
75262;DHT22;63859;51.064;4.580;2022-10-16T02:38:16;13.40;98.80
75262;DHT22;63859;51.064;4.580;2022-10-16T02:40:43;13.50;98.90
75262;DHT22;63859;51.064;4.580;2022-10-16T02:43:09;13.40;98.90
75262;DHT22;63859;51.064;4.580;2022-10-16T02:45:36;13.40;98.90
75262;DHT22;63859;51.064;4.580;2022-10-16T02:48:01;13.40;98.90
75262;DHT22;63859;51.064;4.580;2022-10-16T02:50:27;13.40;99.00
75262;DHT22;63859;51.064;4.580;2022-10-16T02:52:53;13.30;99.00
75262;DHT22;63859;51.064;4.580;2022-10-16T02:55:18;13.30;99.00
75262;DHT22;63859;51.064;4.580;2022-10-16T02:57:44;13.30;99.00
75262;DHT22;63859;51.064;4.580;2022-10-16T03:00:12;13.30;99.10
75262;DHT22;63859;51.064;4.580;2022-10-16T03:02:38;13.30;99.10
75262;DHT22;63859;51.064;4.580;2022-10-16T03:05:04;13.30;99.10
75262;DHT22;63859;51.064;4.580;2022-10-16T03:07:30;13.30;99.20
75262;DHT22;63859;51.064;4.580;2022-10-16T03:09:56;13.30;99.20
75262;DHT22;63859;51.064;4.580;2022-10-16T03:12:21;13.30;99.30
75262;DHT22;63859;51.064;4.580;2022-10-16T03:14:47;13.30;99.30
75262;DHT22;63859;51.064;4.580;2022-10-16T03:17:13;13.30;99.30
75262;DHT22;63859;51.064;4.580;2022-10-16T03:19:39;13.30;99.30
75262;DHT22;63859;51.064;4.580;2022-10-16T03:22:05;13.30;99.30
75262;DHT22;63859;51.064;4.580;2022-10-16T03:24:30;13.40;99.40
75262;DHT22;63859;51.064;4.580;2022-10-16T03:26:56;13.40;99.40
75262;DHT22;63859;51.064;4.580;2022-10-16T03:29:22;13.40;99.30
75262;DHT22;63859;51.064;4.580;2022-10-16T03:31:47;13.40;99.30
75262;DHT22;63859;51.064;4.580;2022-10-16T03:34:15;13.40;99.30
75262;DHT22;63859;51.064;4.580;2022-10-16T03:36:40;13.40;99.30
75262;DHT22;63859;51.064;4.580;2022-10-16T03:39:06;13.40;99.30
75262;DHT22;63859;51.064;4.580;2022-10-16T03:41:31;13.50;99.40
75262;DHT22;63859;51.064;4.580;2022-10-16T03:43:57;13.40;99.40
75262;DHT22;63859;51.064;4.580;2022-10-16T03:46:23;13.40;99.40
75262;DHT22;63859;51.064;4.580;2022-10-16T03:48:48;13.40;99.40
75262;DHT22;63859;51.064;4.580;2022-10-16T03:51:14;13.40;99.40
75262;DHT22;63859;51.064;4.580;2022-10-16T03:53:39;13.40;99.40
75262;DHT22;63859;51.064;4.580;2022-10-16T03:56:05;13.40;99.50
75262;DHT22;63859;51.064;4.580;2022-10-16T03:58:31;13.40;99.50
75262;DHT22;63859;51.064;4.580;2022-10-16T04:00:57;13.40;99.50
75262;DHT22;63859;51.064;4.580;2022-10-16T04:03:22;13.40;99.50
75262;DHT22;63859;51.064;4.580;2022-10-16T04:05:48;13.50;99.60
75262;DHT22;63859;51.064;4.580;2022-10-16T04:08:14;13.40;99.50
75262;DHT22;63859;51.064;4.580;2022-10-16T04:10:42;13.30;99.50
75262;DHT22;63859;51.064;4.580;2022-10-16T04:13:08;13.40;99.50
75262;DHT22;63859;51.064;4.580;2022-10-16T04:15:34;13.40;99.60
75262;DHT22;63859;51.064;4.580;2022-10-16T04:18:00;13.40;99.60
75262;DHT22;63859;51.064;4.580;2022-10-16T04:20:26;13.40;99.60
75262;DHT22;63859;51.064;4.580;2022-10-16T04:22:51;13.30;99.50
75262;DHT22;63859;51.064;4.580;2022-10-16T04:25:17;13.30;99.60
75262;DHT22;63859;51.064;4.580;2022-10-16T04:27:42;13.30;99.60
75262;DHT22;63859;51.064;4.580;2022-10-16T04:30:08;13.30;99.70
75262;DHT22;63859;51.064;4.580;2022-10-16T04:32:34;13.30;99.70
75262;DHT22;63859;51.064;4.580;2022-10-16T04:34:59;13.30;99.70
75262;DHT22;63859;51.064;4.580;2022-10-16T04:37:26;13.20;99.70
75262;DHT22;63859;51.064;4.580;2022-10-16T04:39:53;13.20;99.70
75262;DHT22;63859;51.064;4.580;2022-10-16T04:42:19;13.20;99.80
75262;DHT22;63859;51.064;4.580;2022-10-16T04:44:45;13.20;99.80
75262;DHT22;63859;51.064;4.580;2022-10-16T04:47:10;13.20;99.80
75262;DHT22;63859;51.064;4.580;2022-10-16T04:49:36;13.20;99.80
75262;DHT22;63859;51.064;4.580;2022-10-16T04:52:02;13.20;99.90
75262;DHT22;63859;51.064;4.580;2022-10-16T04:54:28;13.20;99.80
75262;DHT22;63859;51.064;4.580;2022-10-16T04:56:53;13.10;99.80
75262;DHT22;63859;51.064;4.580;2022-10-16T04:59:19;13.10;99.90
75262;DHT22;63859;51.064;4.580;2022-10-16T05:01:45;13.20;99.90
75262;DHT22;63859;51.064;4.580;2022-10-16T05:04:11;13.10;99.90
75262;DHT22;63859;51.064;4.580;2022-10-16T05:06:37;13.10;99.90
75262;DHT22;63859;51.064;4.580;2022-10-16T05:09:05;13.10;99.90
75262;DHT22;63859;51.064;4.580;2022-10-16T05:11:31;13.00;99.90
75262;DHT22;63859;51.064;4.580;2022-10-16T05:13:56;13.00;99.90
75262;DHT22;63859;51.064;4.580;2022-10-16T05:16:22;13.00;99.90
75262;DHT22;63859;51.064;4.580;2022-10-16T05:18:48;13.00;99.90
75262;DHT22;63859;51.064;4.580;2022-10-16T05:21:13;13.00;99.90
75262;DHT22;63859;51.064;4.580;2022-10-16T05:23:39;13.00;99.90
75262;DHT22;63859;51.064;4.580;2022-10-16T05:26:04;13.00;99.90
75262;DHT22;63859;51.064;4.580;2022-10-16T05:28:32;13.00;99.90
75262;DHT22;63859;51.064;4.580;2022-10-16T05:30:57;13.00;99.90
75262;DHT22;63859;51.064;4.580;2022-10-16T05:33:26;13.00;99.90
75262;DHT22;63859;51.064;4.580;2022-10-16T05:35:52;13.00;99.90
75262;DHT22;63859;51.064;4.580;2022-10-16T05:38:18;13.00;99.90
75262;DHT22;63859;51.064;4.580;2022-10-16T05:40:50;13.00;99.90
75262;DHT22;63859;51.064;4.580;2022-10-16T05:43:16;13.00;99.90
75262;DHT22;63859;51.064;4.580;2022-10-16T05:45:42;13.00;99.90
75262;DHT22;63859;51.064;4.580;2022-10-16T05:48:08;13.00;99.90
75262;DHT22;63859;51.064;4.580;2022-10-16T05:50:33;13.00;99.90
75262;DHT22;63859;51.064;4.580;2022-10-16T05:52:59;13.00;99.90
75262;DHT22;63859;51.064;4.580;2022-10-16T05:55:25;13.00;99.90
75262;DHT22;63859;51.064;4.580;2022-10-16T05:57:50;12.90;99.90
75262;DHT22;63859;51.064;4.580;2022-10-16T06:00:19;12.90;99.90
75262;DHT22;63859;51.064;4.580;2022-10-16T06:02:44;12.90;99.90
75262;DHT22;63859;51.064;4.580;2022-10-16T06:05:10;12.90;99.90
75262;DHT22;63859;51.064;4.580;2022-10-16T06:07:35;12.90;99.90
75262;DHT22;63859;51.064;4.580;2022-10-16T06:10:02;12.90;99.90
75262;DHT22;63859;51.064;4.580;2022-10-16T06:12:28;12.90;99.90
75262;DHT22;63859;51.064;4.580;2022-10-16T06:14:54;12.90;99.90
75262;DHT22;63859;51.064;4.580;2022-10-16T06:17:19;12.90;99.90
75262;DHT22;63859;51.064;4.580;2022-10-16T06:19:45;12.90;99.90
75262;DHT22;63859;51.064;4.580;2022-10-16T06:22:10;12.90;99.90
75262;DHT22;63859;51.064;4.580;2022-10-16T06:24:36;12.90;99.90
75262;DHT22;63859;51.064;4.580;2022-10-16T06:27:03;12.90;99.90
75262;DHT22;63859;51.064;4.580;2022-10-16T06:29:28;12.90;99.90
75262;DHT22;63859;51.064;4.580;2022-10-16T06:31:54;12.90;99.90
75262;DHT22;63859;51.064;4.580;2022-10-16T06:34:19;12.90;99.90
75262;DHT22;63859;51.064;4.580;2022-10-16T06:36:45;13.00;99.90
75262;DHT22;63859;51.064;4.580;2022-10-16T06:39:11;13.00;99.90
75262;DHT22;63859;51.064;4.580;2022-10-16T06:41:36;13.00;99.90
75262;DHT22;63859;51.064;4.580;2022-10-16T06:44:05;13.00;99.90
75262;DHT22;63859;51.064;4.580;2022-10-16T06:46:31;13.10;99.90
75262;DHT22;63859;51.064;4.580;2022-10-16T06:48:57;13.20;99.90
75262;DHT22;63859;51.064;4.580;2022-10-16T06:51:24;13.20;99.90
75262;DHT22;63859;51.064;4.580;2022-10-16T06:53:52;13.20;99.90
75262;DHT22;63859;51.064;4.580;2022-10-16T06:56:23;13.30;99.90
75262;DHT22;63859;51.064;4.580;2022-10-16T06:58:50;13.40;99.90
75262;DHT22;63859;51.064;4.580;2022-10-16T07:01:18;13.40;99.90
75262;DHT22;63859;51.064;4.580;2022-10-16T07:03:45;13.40;99.90
75262;DHT22;63859;51.064;4.580;2022-10-16T07:06:13;13.50;99.90
75262;DHT22;63859;51.064;4.580;2022-10-16T07:08:40;13.50;99.90
75262;DHT22;63859;51.064;4.580;2022-10-16T07:11:14;13.60;99.90
75262;DHT22;63859;51.064;4.580;2022-10-16T07:13:41;13.60;99.90
75262;DHT22;63859;51.064;4.580;2022-10-16T07:16:09;13.60;99.90
75262;DHT22;63859;51.064;4.580;2022-10-16T07:18:36;13.60;99.90
75262;DHT22;63859;51.064;4.580;2022-10-16T07:21:10;13.60;99.90
75262;DHT22;63859;51.064;4.580;2022-10-16T07:23:36;13.70;99.90
75262;DHT22;63859;51.064;4.580;2022-10-16T07:26:03;13.70;99.90
75262;DHT22;63859;51.064;4.580;2022-10-16T07:28:28;13.70;99.90
75262;DHT22;63859;51.064;4.580;2022-10-16T07:30:54;13.80;99.90
75262;DHT22;63859;51.064;4.580;2022-10-16T07:33:20;13.80;99.90
75262;DHT22;63859;51.064;4.580;2022-10-16T07:35:50;13.80;99.80
75262;DHT22;63859;51.064;4.580;2022-10-16T07:38:16;13.90;99.80
75262;DHT22;63859;51.064;4.580;2022-10-16T07:40:41;13.90;99.70
75262;DHT22;63859;51.064;4.580;2022-10-16T07:43:07;13.90;99.60
75262;DHT22;63859;51.064;4.580;2022-10-16T07:45:33;14.00;99.60
75262;DHT22;63859;51.064;4.580;2022-10-16T07:47:58;14.00;99.60
75262;DHT22;63859;51.064;4.580;2022-10-16T07:50:24;14.00;99.40
75262;DHT22;63859;51.064;4.580;2022-10-16T07:52:49;14.10;99.40
75262;DHT22;63859;51.064;4.580;2022-10-16T07:55:15;14.10;99.70
75262;DHT22;63859;51.064;4.580;2022-10-16T07:57:41;14.20;99.40
75262;DHT22;63859;51.064;4.580;2022-10-16T08:00:07;14.30;99.30
75262;DHT22;63859;51.064;4.580;2022-10-16T08:02:33;14.20;99.20
75262;DHT22;63859;51.064;4.580;2022-10-16T08:04:59;14.30;99.10
75262;DHT22;63859;51.064;4.580;2022-10-16T08:07:24;14.30;99.10
75262;DHT22;63859;51.064;4.580;2022-10-16T08:09:50;14.40;99.00
75262;DHT22;63859;51.064;4.580;2022-10-16T08:12:17;14.40;98.90
75262;DHT22;63859;51.064;4.580;2022-10-16T08:14:42;14.40;98.80
75262;DHT22;63859;51.064;4.580;2022-10-16T08:17:08;14.50;98.80
75262;DHT22;63859;51.064;4.580;2022-10-16T08:19:33;14.50;98.60
75262;DHT22;63859;51.064;4.580;2022-10-16T08:22:00;14.60;98.90
75262;DHT22;63859;51.064;4.580;2022-10-16T08:24:26;14.60;98.60
75262;DHT22;63859;51.064;4.580;2022-10-16T08:26:53;14.70;98.50
75262;DHT22;63859;51.064;4.580;2022-10-16T08:29:19;14.70;98.50
75262;DHT22;63859;51.064;4.580;2022-10-16T08:31:45;14.70;98.40
75262;DHT22;63859;51.064;4.580;2022-10-16T08:34:11;14.80;98.40
75262;DHT22;63859;51.064;4.580;2022-10-16T08:36:36;14.80;98.20
75262;DHT22;63859;51.064;4.580;2022-10-16T08:39:03;14.90;98.10
75262;DHT22;63859;51.064;4.580;2022-10-16T08:44:31;15.00;97.90
75262;DHT22;63859;51.064;4.580;2022-10-16T08:47:23;14.90;97.80
75262;DHT22;63859;51.064;4.580;2022-10-16T08:49:57;15.10;97.70
75262;DHT22;63859;51.064;4.580;2022-10-16T08:52:25;15.10;97.70
75262;DHT22;63859;51.064;4.580;2022-10-16T08:54:55;15.20;97.70
75262;DHT22;63859;51.064;4.580;2022-10-16T08:57:24;15.20;97.50
75262;DHT22;63859;51.064;4.580;2022-10-16T08:59:55;15.20;97.20
75262;DHT22;63859;51.064;4.580;2022-10-16T09:02:32;15.30;97.20
75262;DHT22;63859;51.064;4.580;2022-10-16T09:05:21;15.30;97.00
75262;DHT22;63859;51.064;4.580;2022-10-16T09:07:51;15.40;97.10
75262;DHT22;63859;51.064;4.580;2022-10-16T09:10:41;15.40;96.70
75262;DHT22;63859;51.064;4.580;2022-10-16T09:13:21;15.40;96.90
75262;DHT22;63859;51.064;4.580;2022-10-16T09:16:14;15.50;97.00
75262;DHT22;63859;51.064;4.580;2022-10-16T09:18:48;15.50;96.80
75262;DHT22;63859;51.064;4.580;2022-10-16T09:21:26;15.60;96.70
75262;DHT22;63859;51.064;4.580;2022-10-16T09:24:14;15.60;96.60
75262;DHT22;63859;51.064;4.580;2022-10-16T09:26:41;15.70;96.80
75262;DHT22;63859;51.064;4.580;2022-10-16T09:29:11;15.70;96.40
75262;DHT22;63859;51.064;4.580;2022-10-16T09:31:37;15.80;96.30
75262;DHT22;63859;51.064;4.580;2022-10-16T09:34:04;15.80;96.40
75262;DHT22;63859;51.064;4.580;2022-10-16T09:36:43;15.80;96.20
75262;DHT22;63859;51.064;4.580;2022-10-16T09:39:11;15.80;96.30
75262;DHT22;63859;51.064;4.580;2022-10-16T09:41:42;15.80;96.30
75262;DHT22;63859;51.064;4.580;2022-10-16T09:44:28;15.80;96.20
75262;DHT22;63859;51.064;4.580;2022-10-16T09:47:12;15.80;96.30
75262;DHT22;63859;51.064;4.580;2022-10-16T09:49:49;15.80;96.10
75262;DHT22;63859;51.064;4.580;2022-10-16T09:52:15;15.90;96.20
75262;DHT22;63859;51.064;4.580;2022-10-16T09:54:58;16.00;96.10
75262;DHT22;63859;51.064;4.580;2022-10-16T09:57:25;16.00;96.20
75262;DHT22;63859;51.064;4.580;2022-10-16T09:59:55;16.10;96.30
75262;DHT22;63859;51.064;4.580;2022-10-16T10:02:37;16.10;95.90
75262;DHT22;63859;51.064;4.580;2022-10-16T10:05:05;16.20;95.50
75262;DHT22;63859;51.064;4.580;2022-10-16T10:07:43;16.20;95.60
75262;DHT22;63859;51.064;4.580;2022-10-16T10:10:21;16.20;95.50
75262;DHT22;63859;51.064;4.580;2022-10-16T10:12:47;16.30;95.60
75262;DHT22;63859;51.064;4.580;2022-10-16T10:15:14;16.40;95.40
75262;DHT22;63859;51.064;4.580;2022-10-16T10:17:57;16.50;95.30
75262;DHT22;63859;51.064;4.580;2022-10-16T10:20:34;16.50;94.60
75262;DHT22;63859;51.064;4.580;2022-10-16T10:23:01;16.60;95.10
75262;DHT22;63859;51.064;4.580;2022-10-16T10:34:42;16.90;94.20
75262;DHT22;63859;51.064;4.580;2022-10-16T10:39:47;17.10;93.70
75262;DHT22;63859;51.064;4.580;2022-10-16T10:42:36;17.10;93.50
75262;DHT22;63859;51.064;4.580;2022-10-16T10:47:59;17.30;93.30
75262;DHT22;63859;51.064;4.580;2022-10-16T10:50:55;17.30;93.20
75262;DHT22;63859;51.064;4.580;2022-10-16T10:56:43;17.40;93.40
75262;DHT22;63859;51.064;4.580;2022-10-16T11:07:28;17.70;92.60
75262;DHT22;63859;51.064;4.580;2022-10-16T11:10:21;17.80;92.20
75262;DHT22;63859;51.064;4.580;2022-10-16T11:12:52;17.90;92.20
75262;DHT22;63859;51.064;4.580;2022-10-16T11:15:32;18.00;92.30
75262;DHT22;63859;51.064;4.580;2022-10-16T11:18:06;18.00;92.10
75262;DHT22;63859;51.064;4.580;2022-10-16T11:20:47;17.90;92.10
75262;DHT22;63859;51.064;4.580;2022-10-16T11:26:25;17.70;91.80
75262;DHT22;63859;51.064;4.580;2022-10-16T11:28:56;17.50;91.80
75262;DHT22;63859;51.064;4.580;2022-10-16T11:31:58;17.50;92.30
75262;DHT22;63859;51.064;4.580;2022-10-16T11:39:27;17.30;92.30
75262;DHT22;63859;51.064;4.580;2022-10-16T11:55:22;18.10;91.20
75262;DHT22;63859;51.064;4.580;2022-10-16T11:57:53;18.30;91.30
75262;DHT22;63859;51.064;4.580;2022-10-16T12:05:40;18.50;90.30
75262;DHT22;63859;51.064;4.580;2022-10-16T12:08:13;18.50;90.20
75262;DHT22;63859;51.064;4.580;2022-10-16T12:10:45;18.60;90.70
75262;DHT22;63859;51.064;4.580;2022-10-16T12:16:23;18.90;90.20
75262;DHT22;63859;51.064;4.580;2022-10-16T12:18:49;18.80;90.50
75262;DHT22;63859;51.064;4.580;2022-10-16T12:21:30;18.70;90.20
75262;DHT22;63859;51.064;4.580;2022-10-16T12:23:58;18.50;90.30
75262;DHT22;63859;51.064;4.580;2022-10-16T12:26:31;18.40;90.70
75262;DHT22;63859;51.064;4.580;2022-10-16T12:29:14;18.40;91.10
75262;DHT22;63859;51.064;4.580;2022-10-16T12:31:45;18.40;90.50
75262;DHT22;63859;51.064;4.580;2022-10-16T12:34:26;18.30;90.30
75262;DHT22;63859;51.064;4.580;2022-10-16T12:36:53;18.40;90.70
75262;DHT22;63859;51.064;4.580;2022-10-16T12:39:24;18.40;90.50
75262;DHT22;63859;51.064;4.580;2022-10-16T12:42:02;18.40;90.50
75262;DHT22;63859;51.064;4.580;2022-10-16T12:44:33;18.50;90.80
75262;DHT22;63859;51.064;4.580;2022-10-16T12:46:58;18.50;90.40
75262;DHT22;63859;51.064;4.580;2022-10-16T12:49:38;18.60;90.40
75262;DHT22;63859;51.064;4.580;2022-10-16T12:52:22;18.60;90.30
75262;DHT22;63859;51.064;4.580;2022-10-16T12:54:49;18.60;90.30
75262;DHT22;63859;51.064;4.580;2022-10-16T13:00:03;18.50;90.50
75262;DHT22;63859;51.064;4.580;2022-10-16T13:02:55;18.50;90.70
75262;DHT22;63859;51.064;4.580;2022-10-16T13:06:11;18.60;90.80
75262;DHT22;63859;51.064;4.580;2022-10-16T13:11:43;18.60;90.60
75262;DHT22;63859;51.064;4.580;2022-10-16T13:24:28;18.60;89.30
75262;DHT22;63859;51.064;4.580;2022-10-16T13:27:04;18.70;90.10
75262;DHT22;63859;51.064;4.580;2022-10-16T13:29:32;18.60;89.80
75262;DHT22;63859;51.064;4.580;2022-10-16T13:32:06;18.60;90.30
75262;DHT22;63859;51.064;4.580;2022-10-16T13:34:33;18.50;90.50
75262;DHT22;63859;51.064;4.580;2022-10-16T13:36:58;18.50;90.50
75262;DHT22;63859;51.064;4.580;2022-10-16T13:39:28;18.40;90.40
75262;DHT22;63859;51.064;4.580;2022-10-16T13:42:22;18.30;90.90
75262;DHT22;63859;51.064;4.580;2022-10-16T13:44:50;18.30;91.20
75262;DHT22;63859;51.064;4.580;2022-10-16T13:47:20;18.30;91.30
75262;DHT22;63859;51.064;4.580;2022-10-16T13:49:47;18.40;91.60
75262;DHT22;63859;51.064;4.580;2022-10-16T13:52:20;18.40;91.40
75262;DHT22;63859;51.064;4.580;2022-10-16T13:54:46;18.40;90.90
75262;DHT22;63859;51.064;4.580;2022-10-16T13:57:16;18.50;91.20
75262;DHT22;63859;51.064;4.580;2022-10-16T13:59:42;18.40;90.90
75262;DHT22;63859;51.064;4.580;2022-10-16T14:02:28;18.40;91.20
75262;DHT22;63859;51.064;4.580;2022-10-16T14:04:57;18.40;91.00
75262;DHT22;63859;51.064;4.580;2022-10-16T14:07:29;18.40;90.70
75262;DHT22;63859;51.064;4.580;2022-10-16T14:10:04;18.40;90.80
75262;DHT22;63859;51.064;4.580;2022-10-16T14:12:30;18.40;90.80
75262;DHT22;63859;51.064;4.580;2022-10-16T14:14:57;18.40;90.80
75262;DHT22;63859;51.064;4.580;2022-10-16T14:17:35;18.40;90.90
75262;DHT22;63859;51.064;4.580;2022-10-16T14:20:04;18.40;91.20
75262;DHT22;63859;51.064;4.580;2022-10-16T14:22:39;18.40;91.30
75262;DHT22;63859;51.064;4.580;2022-10-16T14:30:30;18.40;91.10
75262;DHT22;63859;51.064;4.580;2022-10-16T14:33:18;18.40;91.10
75262;DHT22;63859;51.064;4.580;2022-10-16T14:35:45;18.40;90.80
75262;DHT22;63859;51.064;4.580;2022-10-16T14:38:19;18.40;90.90
75262;DHT22;63859;51.064;4.580;2022-10-16T14:40:48;18.50;91.00
75262;DHT22;63859;51.064;4.580;2022-10-16T14:43:40;18.50;90.90
75262;DHT22;63859;51.064;4.580;2022-10-16T14:46:15;18.50;91.20
75262;DHT22;63859;51.064;4.580;2022-10-16T14:48:46;18.50;91.40
75262;DHT22;63859;51.064;4.580;2022-10-16T14:51:17;18.50;91.70
75262;DHT22;63859;51.064;4.580;2022-10-16T14:53:43;18.50;91.70
75262;DHT22;63859;51.064;4.580;2022-10-16T14:56:21;18.40;91.80
75262;DHT22;63859;51.064;4.580;2022-10-16T14:58:48;18.50;91.90
75262;DHT22;63859;51.064;4.580;2022-10-16T15:01:15;18.30;91.90
75262;DHT22;63859;51.064;4.580;2022-10-16T15:03:41;18.30;92.00
75262;DHT22;63859;51.064;4.580;2022-10-16T15:06:11;18.30;92.10
75262;DHT22;63859;51.064;4.580;2022-10-16T15:08:38;18.30;92.20
75262;DHT22;63859;51.064;4.580;2022-10-16T15:11:04;18.20;92.10
75262;DHT22;63859;51.064;4.580;2022-10-16T15:13:30;18.20;92.20
75262;DHT22;63859;51.064;4.580;2022-10-16T15:15:55;18.20;92.50
75262;DHT22;63859;51.064;4.580;2022-10-16T15:18:21;18.20;92.60
75262;DHT22;63859;51.064;4.580;2022-10-16T15:20:50;18.20;93.10
75262;DHT22;63859;51.064;4.580;2022-10-16T15:23:18;18.20;93.40
75262;DHT22;63859;51.064;4.580;2022-10-16T15:25:49;18.20;93.30
75262;DHT22;63859;51.064;4.580;2022-10-16T15:28:16;18.10;93.30
75262;DHT22;63859;51.064;4.580;2022-10-16T15:30:42;18.10;93.40
75262;DHT22;63859;51.064;4.580;2022-10-16T15:33:19;18.10;93.30
75262;DHT22;63859;51.064;4.580;2022-10-16T15:35:48;18.00;93.10
75262;DHT22;63859;51.064;4.580;2022-10-16T15:38:15;18.00;93.40
75262;DHT22;63859;51.064;4.580;2022-10-16T15:40:41;17.90;93.60
75262;DHT22;63859;51.064;4.580;2022-10-16T15:43:07;18.00;93.70
75262;DHT22;63859;51.064;4.580;2022-10-16T15:45:33;17.90;93.90
75262;DHT22;63859;51.064;4.580;2022-10-16T15:47:58;17.80;93.90
75262;DHT22;63859;51.064;4.580;2022-10-16T15:50:24;17.80;94.00
75262;DHT22;63859;51.064;4.580;2022-10-16T15:52:50;17.80;94.10
75262;DHT22;63859;51.064;4.580;2022-10-16T15:55:16;17.70;94.20
75262;DHT22;63859;51.064;4.580;2022-10-16T15:57:44;17.70;94.20
75262;DHT22;63859;51.064;4.580;2022-10-16T16:00:12;17.70;94.50
75262;DHT22;63859;51.064;4.580;2022-10-16T16:02:40;17.60;94.60
75262;DHT22;63859;51.064;4.580;2022-10-16T16:05:07;17.60;95.10
75262;DHT22;63859;51.064;4.580;2022-10-16T16:07:34;17.60;94.80
75262;DHT22;63859;51.064;4.580;2022-10-16T16:10:01;17.50;94.60
75262;DHT22;63859;51.064;4.580;2022-10-16T16:12:26;17.50;94.60
75262;DHT22;63859;51.064;4.580;2022-10-16T16:14:52;17.40;94.70
75262;DHT22;63859;51.064;4.580;2022-10-16T16:17:18;17.40;94.80
75262;DHT22;63859;51.064;4.580;2022-10-16T16:19:45;17.40;95.20
75262;DHT22;63859;51.064;4.580;2022-10-16T16:22:10;17.30;95.00
75262;DHT22;63859;51.064;4.580;2022-10-16T16:24:36;17.30;95.20
75262;DHT22;63859;51.064;4.580;2022-10-16T16:27:01;17.30;95.30
75262;DHT22;63859;51.064;4.580;2022-10-16T16:29:27;17.20;95.40
75262;DHT22;63859;51.064;4.580;2022-10-16T16:31:53;17.20;95.60
75262;DHT22;63859;51.064;4.580;2022-10-16T16:34:24;17.10;95.60
75262;DHT22;63859;51.064;4.580;2022-10-16T16:36:50;17.00;95.70
75262;DHT22;63859;51.064;4.580;2022-10-16T16:39:16;17.00;95.70
75262;DHT22;63859;51.064;4.580;2022-10-16T16:41:41;16.90;95.80
75262;DHT22;63859;51.064;4.580;2022-10-16T16:44:08;16.90;95.90
75262;DHT22;63859;51.064;4.580;2022-10-16T16:46:36;16.90;95.90
75262;DHT22;63859;51.064;4.580;2022-10-16T16:49:02;16.90;96.00
75262;DHT22;63859;51.064;4.580;2022-10-16T16:51:28;16.80;96.00
75262;DHT22;63859;51.064;4.580;2022-10-16T16:53:54;16.80;96.10
75262;DHT22;63859;51.064;4.580;2022-10-16T16:56:22;16.70;96.10
75262;DHT22;63859;51.064;4.580;2022-10-16T16:58:49;16.80;96.20
75262;DHT22;63859;51.064;4.580;2022-10-16T17:01:16;16.70;96.20
75262;DHT22;63859;51.064;4.580;2022-10-16T17:03:43;16.70;96.30
75262;DHT22;63859;51.064;4.580;2022-10-16T17:06:11;16.60;96.30
75262;DHT22;63859;51.064;4.580;2022-10-16T17:08:37;16.60;96.40
75262;DHT22;63859;51.064;4.580;2022-10-16T17:11:04;16.60;96.50